createdAt,value
2022-10-01T00:02:25.435Z,96082.06
2022-10-01T00:04:55.372Z,96134.50
2022-10-01T00:07:23.029Z,96126.00
2022-10-01T00:09:50.764Z,96140.66
2022-10-01T00:12:17.513Z,96152.03
2022-10-01T00:14:46.312Z,96134.06
2022-10-01T00:17:13.092Z,96126.41
2022-10-01T00:19:40.503Z,96154.78
2022-10-01T00:22:18.945Z,96093.00
2022-10-01T00:24:55.323Z,96160.16
2022-10-01T00:27:22.054Z,96156.75
2022-10-01T00:29:49.179Z,96143.22
2022-10-01T00:32:16.011Z,96126.94
2022-10-01T00:34:42.927Z,96128.81
2022-10-01T00:37:12.409Z,96131.44
2022-10-01T00:39:39.595Z,96144.50
2022-10-01T00:42:24.116Z,96125.66
2022-10-01T00:44:54.055Z,96060.53
2022-10-01T00:47:28.753Z,96118.94
2022-10-01T00:50:01.361Z,96124.28
2022-10-01T00:52:30.882Z,96136.19
2022-10-01T00:55:28.846Z,96148.25
2022-10-01T00:57:56.502Z,96122.56
2022-10-01T01:00:23.385Z,96137.19
2022-10-01T01:02:52.743Z,96065.13
2022-10-01T01:05:20.257Z,96127.16
2022-10-01T01:07:51.073Z,96134.00
2022-10-01T01:10:35.160Z,96042.94
2022-10-01T01:13:09.048Z,96080.88
2022-10-01T01:15:55.340Z,96120.41
2022-10-01T01:18:33.594Z,96102.44
2022-10-01T01:21:21.223Z,96136.91
2022-10-01T01:24:11.734Z,96141.25
2022-10-01T01:26:54.490Z,96147.28
2022-10-01T01:29:34.688Z,96140.41
2022-10-01T01:32:09.435Z,96121.50
2022-10-01T01:34:41.578Z,96093.94
2022-10-01T01:38:09.247Z,96145.53
2022-10-01T01:40:37.470Z,96119.72
2022-10-01T01:43:06.553Z,96140.41
2022-10-01T01:45:35.567Z,96098.22
2022-10-01T01:48:03.062Z,96123.22
2022-10-01T01:50:34.431Z,96120.75
2022-10-01T01:53:02.138Z,96085.50
2022-10-01T01:55:29.965Z,96137.22
2022-10-01T01:57:57.118Z,96137.16
2022-10-01T02:00:24.463Z,96135.38
2022-10-01T02:02:54.450Z,96084.56
2022-10-01T02:05:26.243Z,96138.78
2022-10-01T02:08:35.805Z,96148.38
2022-10-01T02:11:20.832Z,96141.50
2022-10-01T02:14:02.750Z,96097.66
2022-10-01T02:16:56.870Z,96134.63
2022-10-01T02:19:33.647Z,96127.72
2022-10-01T02:22:18.594Z,96076.09
2022-10-01T02:24:56.980Z,96101.03
2022-10-01T02:27:26.647Z,96123.44
2022-10-01T02:29:55.311Z,96101.94
2022-10-01T02:32:22.200Z,96098.47
2022-10-01T02:34:50.439Z,96104.53
2022-10-01T02:37:20.622Z,96120.81
2022-10-01T02:39:48.058Z,96042.59
2022-10-01T02:42:52.412Z,96115.66
2022-10-01T02:45:22.818Z,96091.59
2022-10-01T02:47:56.197Z,96099.38
2022-10-01T02:50:24.508Z,96107.16
2022-10-01T02:52:59.207Z,96079.66
2022-10-01T02:55:28.893Z,96106.38
2022-10-01T02:57:56.635Z,96093.50
2022-10-01T03:00:26.980Z,96092.69
2022-10-01T03:02:55.018Z,96109.81
2022-10-01T03:05:22.565Z,96083.19
2022-10-01T03:07:50.367Z,96109.03
2022-10-01T03:10:17.192Z,96080.66
2022-10-01T03:12:46.566Z,96078.13
2022-10-01T03:15:14.470Z,96113.41
2022-10-01T03:17:41.135Z,96055.75
2022-10-01T03:20:08.596Z,96110.78
2022-10-01T03:22:35.464Z,96085.84
2022-10-01T03:26:01.283Z,96096.22
2022-10-01T03:28:28.702Z,96094.50
2022-10-01T03:31:05.291Z,96097.06
2022-10-01T03:33:31.919Z,96070.38
2022-10-01T03:35:58.566Z,96059.16
2022-10-01T03:38:25.193Z,96008.41
2022-10-01T03:40:51.760Z,96081.50
2022-10-01T03:43:18.657Z,95990.41
2022-10-01T03:45:45.255Z,96005.00
2022-10-01T03:48:11.955Z,96054.03
2022-10-01T03:50:39.097Z,95972.34
2022-10-01T03:53:06.558Z,96073.84
2022-10-01T03:55:33.133Z,96082.47
2022-10-01T03:57:59.908Z,96026.56
2022-10-01T04:00:26.472Z,95931.13
2022-10-01T04:02:54.468Z,96030.88
2022-10-01T04:05:21.848Z,96007.66
2022-10-01T04:07:50.299Z,96028.28
2022-10-01T04:10:16.986Z,95968.94
2022-10-01T04:12:44.239Z,96015.38
2022-10-01T04:15:10.914Z,96075.59
2022-10-01T04:17:37.560Z,96090.25
2022-10-01T04:20:04.389Z,96063.59
2022-10-01T04:22:31.314Z,96085.13
2022-10-01T04:24:57.940Z,96035.22
2022-10-01T04:27:24.904Z,96081.66
2022-10-01T04:29:53.498Z,96085.09
2022-10-01T04:32:21.539Z,96084.22
2022-10-01T04:34:54.245Z,96056.69
2022-10-01T04:37:22.392Z,96027.44
2022-10-01T04:39:49.010Z,96071.31
2022-10-01T04:42:15.727Z,96079.06
2022-10-01T04:44:42.321Z,96052.41
2022-10-01T04:47:09.207Z,96058.44
2022-10-01T04:49:36.123Z,96053.28
2022-10-01T04:52:03.389Z,96070.44
2022-10-01T04:54:30.666Z,95993.00
2022-10-01T04:56:58.266Z,95968.97
2022-10-01T04:59:25.755Z,96079.03
2022-10-01T05:01:52.820Z,96066.97
2022-10-01T05:04:23.875Z,96082.47
2022-10-01T05:06:52.435Z,96073.84
2022-10-01T05:09:19.782Z,96038.53
2022-10-01T05:11:46.388Z,96065.19
2022-10-01T05:18:08.155Z,96043.66
2022-10-01T05:20:35.152Z,96041.03
2022-10-01T05:23:01.794Z,96082.31
2022-10-01T05:25:28.389Z,95931.88
2022-10-01T05:28:05.008Z,96059.09
2022-10-01T05:30:33.007Z,96028.16
2022-10-01T05:33:01.680Z,95900.03
2022-10-01T05:35:28.900Z,95931.81
2022-10-01T05:38:02.761Z,95976.44
2022-10-01T05:40:30.106Z,96078.69
2022-10-01T05:42:58.405Z,96052.88
2022-10-01T05:45:30.116Z,96088.06
2022-10-01T05:48:01.135Z,96008.06
2022-10-01T05:50:32.530Z,96074.22
2022-10-01T05:53:00.121Z,96101.66
2022-10-01T05:55:31.788Z,96085.22
2022-10-01T05:58:03.042Z,96082.56
2022-10-01T06:00:30.669Z,96006.09
2022-10-01T06:03:01.333Z,96101.34
2022-10-01T06:05:29.857Z,96108.16
2022-10-01T06:07:56.510Z,95992.06
2022-10-01T06:10:24.905Z,96071.94
2022-10-01T06:12:51.893Z,96086.50
2022-10-01T06:15:18.634Z,96118.25
2022-10-01T06:17:45.548Z,95999.59
2022-10-01T06:20:15.232Z,96055.25
2022-10-01T06:22:43.138Z,96093.75
2022-10-01T06:25:11.604Z,96097.97
2022-10-01T06:27:39.143Z,96046.38
2022-10-01T06:30:06.597Z,96028.31
2022-10-01T06:32:35.061Z,96100.34
2022-10-01T06:35:02.906Z,96094.22
2022-10-01T06:37:29.883Z,96058.09
2022-10-01T06:39:56.733Z,96095.72
2022-10-01T06:42:28.656Z,96071.69
2022-10-01T06:44:55.320Z,96013.22
2022-10-01T06:47:21.920Z,96018.28
2022-10-01T06:49:48.560Z,96080.13
2022-10-01T06:52:34.797Z,96030.28
2022-10-01T06:55:02.006Z,96062.69
2022-10-01T06:57:29.068Z,96076.28
2022-10-01T06:59:55.861Z,96041.81
2022-10-01T07:02:28.046Z,96072.63
2022-10-01T07:05:00.145Z,96052.81
2022-10-01T07:07:31.052Z,96068.19
2022-10-01T07:09:59.085Z,95996.03
2022-10-01T07:12:27.071Z,96041.34
2022-10-01T07:14:54.651Z,96066.38
2022-10-01T07:17:22.209Z,96055.03
2022-10-01T07:19:48.901Z,96049.97
2022-10-01T07:22:15.516Z,96042.03
2022-10-01T07:24:42.215Z,96040.25
2022-10-01T07:27:08.768Z,95942.41
2022-10-01T07:29:35.728Z,96047.00
2022-10-01T07:32:04.073Z,96051.19
2022-10-01T07:34:33.625Z,96060.75
2022-10-01T07:37:00.778Z,96067.47
2022-10-01T07:39:27.428Z,96029.63
2022-10-01T07:41:54.098Z,96043.09
2022-10-01T07:44:21.252Z,95945.91
2022-10-01T07:47:39.399Z,96052.25
2022-10-01T07:50:07.056Z,96010.94
2022-10-01T07:52:34.259Z,95992.69
2022-10-01T07:55:01.748Z,96026.00
2022-10-01T07:57:28.667Z,96020.66
2022-10-01T07:59:56.195Z,95961.63
2022-10-01T08:02:23.964Z,96026.66
2022-10-01T08:05:09.484Z,95957.84
2022-10-01T08:08:05.652Z,96040.03
2022-10-01T08:10:34.808Z,96041.78
2022-10-01T08:13:04.704Z,96014.19
2022-10-01T08:15:32.104Z,96008.84
2022-10-01T08:18:02.157Z,96035.38
2022-10-01T08:20:28.922Z,95982.28
2022-10-01T08:23:02.073Z,96032.81
2022-10-01T08:25:28.707Z,96006.94
2022-10-01T08:27:55.301Z,95995.44
2022-10-01T08:30:22.624Z,95974.75
2022-10-01T08:32:54.446Z,95990.97
2022-10-01T08:35:21.168Z,95985.88
2022-10-01T08:37:48.389Z,95970.38
2022-10-01T08:40:15.460Z,95997.59
2022-10-01T08:42:50.054Z,95950.44
2022-10-01T08:45:23.584Z,95949.63
2022-10-01T08:51:17.093Z,95980.66
2022-10-01T08:54:09.198Z,95976.09
2022-10-01T08:56:40.004Z,95992.19
2022-10-01T08:59:36.288Z,95981.84
2022-10-01T09:02:29.013Z,95997.34
2022-10-01T09:05:02.525Z,95979.94
2022-10-01T09:07:32.261Z,96001.31
2022-10-01T09:10:04.172Z,95996.97
2022-10-01T09:13:31.717Z,95977.84
2022-10-01T09:16:16.606Z,96000.69
